Sekuruwe, South Africa
Current Conditions -  °F | °C
As of 6:00 PM on Thursday 29 Jan 2015 (Local Time) from FAPP Reporting Station
Rain Showers Rain Showers  
Wind Chill: 73°   Ceiling: Unl
Heat Index: 73°   Visibility: 6mi
Dew Point: 59°   Wind: 9mph
Humidity: 61%   Direction: 70°ENE
Pressure: 30.06"   Gusts: NA
Location:  23.95°S, 28.93°E
Report Text: FAPP 291600Z 07008KT 9999 VCSH SCT040TCU 23/15 Q1018
Loading
Personal Weather Stations






























Interactive Weather Map New forecast layout! Learn more

10-Day Weather Forecast

Advertisements
Track Severe Weather on mobile